sensor_id;sensor_type;location;lat;lon;timestamp;pressure;altitude;pressure_sealevel;temperature;humidity
13314;BME280;6725;48.112;11.604;2022-07-18T00:02:03;96062.25;;;17.82;100.00
13314;BME280;6725;48.112;11.604;2022-07-18T00:04:29;96056.91;;;17.75;100.00
13314;BME280;6725;48.112;11.604;2022-07-18T00:06:54;96056.78;;;17.79;100.00
13314;BME280;6725;48.112;11.604;2022-07-18T00:09:20;96060.41;;;17.76;100.00
13314;BME280;6725;48.112;11.604;2022-07-18T00:11:48;96065.75;;;17.83;100.00
13314;BME280;6725;48.112;11.604;2022-07-18T00:14:14;96055.94;;;17.82;100.00
13314;BME280;6725;48.112;11.604;2022-07-18T00:16:39;96050.94;;;17.77;100.00
13314;BME280;6725;48.112;11.604;2022-07-18T00:19:05;96061.28;;;17.73;100.00
13314;BME280;6725;48.112;11.604;2022-07-18T00:21:31;96063.53;;;17.62;100.00
13314;BME280;6725;48.112;11.604;2022-07-18T00:23:57;96069.06;;;17.62;100.00
13314;BME280;6725;48.112;11.604;2022-07-18T00:26:22;96061.97;;;17.61;100.00
13314;BME280;6725;48.112;11.604;2022-07-18T00:28:47;96061.22;;;17.60;100.00
13314;BME280;6725;48.112;11.604;2022-07-18T00:31:13;96057.69;;;17.60;100.00
13314;BME280;6725;48.112;11.604;2022-07-18T00:33:38;96054.91;;;17.60;100.00
13314;BME280;6725;48.112;11.604;2022-07-18T00:36:04;96060.06;;;17.58;100.00
13314;BME280;6725;48.112;11.604;2022-07-18T00:38:29;96057.06;;;17.52;100.00
13314;BME280;6725;48.112;11.604;2022-07-18T00:40:55;96060.25;;;17.51;100.00
13314;BME280;6725;48.112;11.604;2022-07-18T00:43:20;96051.63;;;17.49;100.00
13314;BME280;6725;48.112;11.604;2022-07-18T00:45:48;96058.09;;;17.42;100.00
13314;BME280;6725;48.112;11.604;2022-07-18T00:48:13;96047.53;;;17.37;100.00
13314;BME280;6725;48.112;11.604;2022-07-18T00:50:39;96048.50;;;17.31;100.00
13314;BME280;6725;48.112;11.604;2022-07-18T00:53:05;96047.78;;;17.27;100.00
13314;BME280;6725;48.112;11.604;2022-07-18T00:55:33;96038.81;;;17.23;100.00
13314;BME280;6725;48.112;11.604;2022-07-18T00:57:59;96037.69;;;17.20;100.00
13314;BME280;6725;48.112;11.604;2022-07-18T01:00:24;96035.88;;;17.14;100.00
13314;BME280;6725;48.112;11.604;2022-07-18T01:03:09;96025.34;;;17.09;100.00
13314;BME280;6725;48.112;11.604;2022-07-18T01:05:35;96030.97;;;17.05;100.00
13314;BME280;6725;48.112;11.604;2022-07-18T01:08:01;96031.38;;;17.04;100.00
13314;BME280;6725;48.112;11.604;2022-07-18T01:10:26;96033.78;;;17.02;100.00
13314;BME280;6725;48.112;11.604;2022-07-18T01:12:52;96025.94;;;17.00;100.00
13314;BME280;6725;48.112;11.604;2022-07-18T01:15:17;96030.69;;;17.00;100.00
13314;BME280;6725;48.112;11.604;2022-07-18T01:17:43;96035.84;;;16.98;100.00
13314;BME280;6725;48.112;11.604;2022-07-18T01:20:09;96019.81;;;16.93;100.00
13314;BME280;6725;48.112;11.604;2022-07-18T01:22:35;96025.50;;;16.86;100.00
13314;BME280;6725;48.112;11.604;2022-07-18T01:25:00;96018.22;;;16.76;100.00
13314;BME280;6725;48.112;11.604;2022-07-18T01:27:26;96017.84;;;16.74;100.00
13314;BME280;6725;48.112;11.604;2022-07-18T01:29:52;96018.78;;;16.67;100.00
13314;BME280;6725;48.112;11.604;2022-07-18T01:32:19;96012.94;;;16.65;100.00
13314;BME280;6725;48.112;11.604;2022-07-18T01:34:47;96010.75;;;16.57;100.00
13314;BME280;6725;48.112;11.604;2022-07-18T01:37:13;96019.50;;;16.52;100.00
13314;BME280;6725;48.112;11.604;2022-07-18T01:39:40;96010.06;;;16.53;100.00
13314;BME280;6725;48.112;11.604;2022-07-18T01:42:07;96010.81;;;16.53;100.00
13314;BME280;6725;48.112;11.604;2022-07-18T01:44:35;96018.25;;;16.56;100.00
13314;BME280;6725;48.112;11.604;2022-07-18T01:47:03;96014.88;;;16.49;100.00
13314;BME280;6725;48.112;11.604;2022-07-18T01:49:28;96015.72;;;16.46;100.00
13314;BME280;6725;48.112;11.604;2022-07-18T01:51:55;96008.63;;;16.44;100.00
13314;BME280;6725;48.112;11.604;2022-07-18T01:54:23;96012.66;;;16.40;100.00
13314;BME280;6725;48.112;11.604;2022-07-18T01:56:49;96020.09;;;16.43;100.00
13314;BME280;6725;48.112;11.604;2022-07-18T01:59:14;96024.00;;;16.46;100.00
13314;BME280;6725;48.112;11.604;2022-07-18T02:01:40;96024.00;;;16.46;100.00
13314;BME280;6725;48.112;11.604;2022-07-18T02:04:05;96010.31;;;16.38;100.00
13314;BME280;6725;48.112;11.604;2022-07-18T02:06:31;96015.84;;;16.38;100.00
13314;BME280;6725;48.112;11.604;2022-07-18T02:08:56;96012.78;;;16.33;100.00
13314;BME280;6725;48.112;11.604;2022-07-18T02:11:22;96010.78;;;16.33;100.00
13314;BME280;6725;48.112;11.604;2022-07-18T02:13:48;96006.56;;;16.29;100.00
13314;BME280;6725;48.112;11.604;2022-07-18T02:16:13;96005.09;;;16.24;100.00
13314;BME280;6725;48.112;11.604;2022-07-18T02:18:39;96004.31;;;16.24;100.00
13314;BME280;6725;48.112;11.604;2022-07-18T02:21:04;96001.13;;;16.25;100.00
13314;BME280;6725;48.112;11.604;2022-07-18T02:23:30;95992.50;;;16.23;100.00
13314;BME280;6725;48.112;11.604;2022-07-18T02:25:55;95990.66;;;16.17;100.00
13314;BME280;6725;48.112;11.604;2022-07-18T02:28:21;96005.66;;;16.16;100.00
13314;BME280;6725;48.112;11.604;2022-07-18T02:30:46;95996.75;;;16.08;100.00
13314;BME280;6725;48.112;11.604;2022-07-18T02:33:13;95987.34;;;16.06;100.00
13314;BME280;6725;48.112;11.604;2022-07-18T02:35:39;95990.47;;;16.08;100.00
13314;BME280;6725;48.112;11.604;2022-07-18T02:38:04;95988.97;;;16.03;100.00
13314;BME280;6725;48.112;11.604;2022-07-18T02:40:30;95983.59;;;15.96;100.00
13314;BME280;6725;48.112;11.604;2022-07-18T02:42:55;95974.63;;;15.92;100.00
13314;BME280;6725;48.112;11.604;2022-07-18T02:45:20;95965.66;;;15.88;100.00
13314;BME280;6725;48.112;11.604;2022-07-18T02:47:46;95959.44;;;15.84;100.00
13314;BME280;6725;48.112;11.604;2022-07-18T02:50:12;95965.78;;;15.81;100.00
13314;BME280;6725;48.112;11.604;2022-07-18T02:52:39;95966.63;;;15.78;100.00
13314;BME280;6725;48.112;11.604;2022-07-18T02:55:06;95967.13;;;15.73;100.00
13314;BME280;6725;48.112;11.604;2022-07-18T02:57:32;95965.63;;;15.69;100.00
13314;BME280;6725;48.112;11.604;2022-07-18T02:59:58;95969.25;;;15.66;100.00
13314;BME280;6725;48.112;11.604;2022-07-18T03:02:23;95978.28;;;15.66;100.00
13314;BME280;6725;48.112;11.604;2022-07-18T03:04:49;95982.22;;;15.65;100.00
13314;BME280;6725;48.112;11.604;2022-07-18T03:07:14;95975.66;;;15.59;100.00
13314;BME280;6725;48.112;11.604;2022-07-18T03:09:40;95970.56;;;15.58;100.00
13314;BME280;6725;48.112;11.604;2022-07-18T03:12:05;95962.41;;;15.51;100.00
13314;BME280;6725;48.112;11.604;2022-07-18T03:14:30;95965.53;;;15.53;100.00
13314;BME280;6725;48.112;11.604;2022-07-18T03:16:56;95958.13;;;15.50;100.00
13314;BME280;6725;48.112;11.604;2022-07-18T03:19:21;95967.28;;;15.43;100.00
13314;BME280;6725;48.112;11.604;2022-07-18T03:21:47;95959.63;;;15.31;100.00
13314;BME280;6725;48.112;11.604;2022-07-18T03:24:12;95958.03;;;15.30;100.00
13314;BME280;6725;48.112;11.604;2022-07-18T03:26:39;95959.16;;;15.36;100.00
13314;BME280;6725;48.112;11.604;2022-07-18T03:29:05;95970.53;;;15.38;100.00
13314;BME280;6725;48.112;11.604;2022-07-18T03:31:30;95978.00;;;15.38;100.00
13314;BME280;6725;48.112;11.604;2022-07-18T03:33:56;95973.72;;;15.33;100.00
13314;BME280;6725;48.112;11.604;2022-07-18T03:36:21;95973.72;;;15.33;100.00
13314;BME280;6725;48.112;11.604;2022-07-18T03:38:46;95981.63;;;15.31;100.00
13314;BME280;6725;48.112;11.604;2022-07-18T03:41:12;95979.22;;;15.37;100.00
13314;BME280;6725;48.112;11.604;2022-07-18T03:43:38;95976.47;;;15.37;100.00
13314;BME280;6725;48.112;11.604;2022-07-18T03:46:04;95980.97;;;15.47;100.00
13314;BME280;6725;48.112;11.604;2022-07-18T03:48:30;95991.56;;;15.48;100.00
13314;BME280;6725;48.112;11.604;2022-07-18T03:50:55;95988.41;;;15.50;100.00
13314;BME280;6725;48.112;11.604;2022-07-18T03:53:21;95998.88;;;15.58;100.00
13314;BME280;6725;48.112;11.604;2022-07-18T03:55:46;96003.06;;;15.66;100.00
13314;BME280;6725;48.112;11.604;2022-07-18T03:58:12;96015.72;;;15.83;100.00
13314;BME280;6725;48.112;11.604;2022-07-18T04:00:37;96022.16;;;15.96;100.00
13314;BME280;6725;48.112;11.604;2022-07-18T04:03:03;96020.34;;;16.09;100.00
13314;BME280;6725;48.112;11.604;2022-07-18T04:05:28;96033.44;;;16.25;100.00
13314;BME280;6725;48.112;11.604;2022-07-18T04:07:53;96029.78;;;16.51;100.00
13314;BME280;6725;48.112;11.604;2022-07-18T04:10:19;96052.66;;;16.87;100.00
13314;BME280;6725;48.112;11.604;2022-07-18T04:12:52;96047.97;;;17.20;100.00
13314;BME280;6725;48.112;11.604;2022-07-18T04:15:19;96063.22;;;17.44;100.00
13314;BME280;6725;48.112;11.604;2022-07-18T04:17:45;96062.84;;;17.74;100.00
13314;BME280;6725;48.112;11.604;2022-07-18T04:20:11;96081.41;;;18.34;100.00
13314;BME280;6725;48.112;11.604;2022-07-18T04:25:14;96084.69;;;18.86;100.00
13314;BME280;6725;48.112;11.604;2022-07-18T04:27:40;96082.84;;;19.08;100.00
13314;BME280;6725;48.112;11.604;2022-07-18T04:30:06;96084.78;;;19.36;100.00
13314;BME280;6725;48.112;11.604;2022-07-18T04:32:32;96091.34;;;19.67;100.00
13314;BME280;6725;48.112;11.604;2022-07-18T04:34:57;96096.06;;;19.79;100.00
13314;BME280;6725;48.112;11.604;2022-07-18T04:37:23;96092.47;;;20.16;100.00
13314;BME280;6725;48.112;11.604;2022-07-18T04:39:48;96089.28;;;20.39;100.00
13314;BME280;6725;48.112;11.604;2022-07-18T04:42:13;96088.47;;;20.51;100.00
13314;BME280;6725;48.112;11.604;2022-07-18T04:44:39;96096.16;;;20.69;100.00
13314;BME280;6725;48.112;11.604;2022-07-18T04:47:04;96097.19;;;20.84;98.13
13314;BME280;6725;48.112;11.604;2022-07-18T04:49:29;96096.72;;;20.98;96.67
13314;BME280;6725;48.112;11.604;2022-07-18T04:51:55;96092.44;;;21.06;96.27
13314;BME280;6725;48.112;11.604;2022-07-18T04:54:20;96089.66;;;21.36;93.03
13314;BME280;6725;48.112;11.604;2022-07-18T04:56:46;96092.94;;;21.74;91.17
13314;BME280;6725;48.112;11.604;2022-07-18T04:59:11;96088.97;;;21.93;88.07
13314;BME280;6725;48.112;11.604;2022-07-18T05:01:36;96090.78;;;21.78;88.16
13314;BME280;6725;48.112;11.604;2022-07-18T05:04:02;96097.00;;;21.91;88.95
13314;BME280;6725;48.112;11.604;2022-07-18T05:06:28;96096.16;;;22.39;84.89
13314;BME280;6725;48.112;11.604;2022-07-18T05:08:53;96107.34;;;22.58;83.28
13314;BME280;6725;48.112;11.604;2022-07-18T05:11:18;96094.00;;;22.34;85.95
13314;BME280;6725;48.112;11.604;2022-07-18T05:13:44;96097.75;;;22.50;84.42
13314;BME280;6725;48.112;11.604;2022-07-18T05:16:09;96101.56;;;22.43;84.95
13314;BME280;6725;48.112;11.604;2022-07-18T05:18:34;96102.38;;;22.71;84.19
13314;BME280;6725;48.112;11.604;2022-07-18T05:21:00;96101.78;;;22.76;83.15
13314;BME280;6725;48.112;11.604;2022-07-18T05:23:25;96105.19;;;22.80;82.23
13314;BME280;6725;48.112;11.604;2022-07-18T05:25:51;96090.59;;;23.03;81.63
13314;BME280;6725;48.112;11.604;2022-07-18T05:28:16;96103.13;;;23.25;80.69
13314;BME280;6725;48.112;11.604;2022-07-18T05:30:41;96094.13;;;23.72;76.85
13314;BME280;6725;48.112;11.604;2022-07-18T05:33:07;96096.06;;;24.22;75.05
13314;BME280;6725;48.112;11.604;2022-07-18T05:35:33;96096.31;;;24.94;72.27
13314;BME280;6725;48.112;11.604;2022-07-18T05:37:58;96095.31;;;24.83;71.69
13314;BME280;6725;48.112;11.604;2022-07-18T05:40:23;96088.88;;;24.91;71.45
13314;BME280;6725;48.112;11.604;2022-07-18T05:42:49;96095.69;;;25.43;69.07
13314;BME280;6725;48.112;11.604;2022-07-18T05:45:15;96099.03;;;25.76;68.12
13314;BME280;6725;48.112;11.604;2022-07-18T05:47:40;96097.06;;;25.82;66.26
13314;BME280;6725;48.112;11.604;2022-07-18T05:50:06;96096.06;;;26.14;65.33
13314;BME280;6725;48.112;11.604;2022-07-18T05:52:32;96097.91;;;26.77;61.36
13314;BME280;6725;48.112;11.604;2022-07-18T05:54:58;96094.72;;;26.64;61.90
13314;BME280;6725;48.112;11.604;2022-07-18T05:57:23;96097.38;;;27.44;59.85
13314;BME280;6725;48.112;11.604;2022-07-18T05:59:48;96092.03;;;28.08;56.00
13314;BME280;6725;48.112;11.604;2022-07-18T06:02:14;96097.50;;;28.23;54.63
13314;BME280;6725;48.112;11.604;2022-07-18T06:04:39;96091.50;;;28.04;54.79
13314;BME280;6725;48.112;11.604;2022-07-18T06:07:05;96092.78;;;28.03;54.25
13314;BME280;6725;48.112;11.604;2022-07-18T06:09:31;96088.06;;;28.74;53.00
13314;BME280;6725;48.112;11.604;2022-07-18T06:11:58;96086.94;;;29.30;49.71
13314;BME280;6725;48.112;11.604;2022-07-18T06:14:26;96084.44;;;29.54;48.43
13314;BME280;6725;48.112;11.604;2022-07-18T06:16:51;96086.22;;;29.35;48.53
13314;BME280;6725;48.112;11.604;2022-07-18T06:19:17;96075.75;;;29.74;47.93
13314;BME280;6725;48.112;11.604;2022-07-18T06:21:42;96088.28;;;30.17;46.76
13314;BME280;6725;48.112;11.604;2022-07-18T06:24:07;96088.97;;;30.56;45.20
13314;BME280;6725;48.112;11.604;2022-07-18T06:26:33;96083.81;;;30.60;45.60
13314;BME280;6725;48.112;11.604;2022-07-18T06:28:58;96090.81;;;31.05;44.09
13314;BME280;6725;48.112;11.604;2022-07-18T06:31:23;96095.97;;;31.01;43.35
13314;BME280;6725;48.112;11.604;2022-07-18T06:33:49;96092.94;;;30.99;42.99
13314;BME280;6725;48.112;11.604;2022-07-18T06:36:14;96088.78;;;31.46;40.97
13314;BME280;6725;48.112;11.604;2022-07-18T06:38:40;96087.59;;;31.71;41.27
13314;BME280;6725;48.112;11.604;2022-07-18T06:41:06;96086.56;;;32.57;39.97
13314;BME280;6725;48.112;11.604;2022-07-18T06:43:31;96084.09;;;33.33;37.28
13314;BME280;6725;48.112;11.604;2022-07-18T06:45:57;96080.97;;;32.22;37.23
13314;BME280;6725;48.112;11.604;2022-07-18T06:48:23;96073.16;;;33.00;36.64
13314;BME280;6725;48.112;11.604;2022-07-18T06:50:48;96076.09;;;33.13;35.65
13314;BME280;6725;48.112;11.604;2022-07-18T06:53:14;96079.91;;;32.97;35.38
13314;BME280;6725;48.112;11.604;2022-07-18T06:55:39;96084.88;;;32.91;36.22
13314;BME280;6725;48.112;11.604;2022-07-18T06:58:04;96087.84;;;32.56;35.76
13314;BME280;6725;48.112;11.604;2022-07-18T07:00:30;96092.34;;;32.46;35.61
13314;BME280;6725;48.112;11.604;2022-07-18T07:02:55;96091.25;;;32.97;35.73
13314;BME280;6725;48.112;11.604;2022-07-18T07:05:21;96091.13;;;33.45;33.42
13314;BME280;6725;48.112;11.604;2022-07-18T07:07:47;96084.47;;;34.90;31.51
13314;BME280;6725;48.112;11.604;2022-07-18T07:10:13;96083.56;;;35.08;30.48
13314;BME280;6725;48.112;11.604;2022-07-18T07:12:50;96096.44;;;36.02;29.15
13314;BME280;6725;48.112;11.604;2022-07-18T07:15:21;96101.50;;;35.96;28.98
13314;BME280;6725;48.112;11.604;2022-07-18T07:17:47;96098.31;;;36.20;27.86
13314;BME280;6725;48.112;11.604;2022-07-18T07:20:13;96102.84;;;36.92;27.42
13314;BME280;6725;48.112;11.604;2022-07-18T07:22:46;96100.09;;;37.50;26.30
13314;BME280;6725;48.112;11.604;2022-07-18T07:25:13;96105.47;;;37.61;25.81
13314;BME280;6725;48.112;11.604;2022-07-18T07:27:39;96106.31;;;37.84;25.42
13314;BME280;6725;48.112;11.604;2022-07-18T07:30:06;96114.56;;;37.52;26.15
13314;BME280;6725;48.112;11.604;2022-07-18T07:32:39;96114.75;;;37.54;26.54
13314;BME280;6725;48.112;11.604;2022-07-18T07:35:06;96109.38;;;37.36;25.66
13314;BME280;6725;48.112;11.604;2022-07-18T07:37:33;96110.16;;;37.44;24.49
13314;BME280;6725;48.112;11.604;2022-07-18T07:39:59;96118.28;;;37.32;23.93
13314;BME280;6725;48.112;11.604;2022-07-18T07:42:25;96116.97;;;36.08;25.77
13314;BME280;6725;48.112;11.604;2022-07-18T07:44:50;96106.94;;;38.05;24.40
13314;BME280;6725;48.112;11.604;2022-07-18T07:47:16;96111.81;;;37.82;24.37
13314;BME280;6725;48.112;11.604;2022-07-18T07:49:41;96097.28;;;39.30;23.48
13314;BME280;6725;48.112;11.604;2022-07-18T07:52:06;96105.41;;;39.57;22.52
13314;BME280;6725;48.112;11.604;2022-07-18T07:54:32;96102.75;;;38.81;23.25
13314;BME280;6725;48.112;11.604;2022-07-18T07:56:57;96095.50;;;39.50;22.49
13314;BME280;6725;48.112;11.604;2022-07-18T07:59:22;96097.16;;;39.13;22.86
13314;BME280;6725;48.112;11.604;2022-07-18T08:01:48;96095.31;;;38.93;21.77
13314;BME280;6725;48.112;11.604;2022-07-18T08:04:13;96100.19;;;39.15;21.33
13314;BME280;6725;48.112;11.604;2022-07-18T08:06:39;96109.75;;;39.03;21.42
13314;BME280;6725;48.112;11.604;2022-07-18T08:09:04;96094.41;;;38.68;21.29
13314;BME280;6725;48.112;11.604;2022-07-18T08:11:31;96098.34;;;38.88;20.79
13314;BME280;6725;48.112;11.604;2022-07-18T08:13:57;96105.38;;;38.04;21.72
13314;BME280;6725;48.112;11.604;2022-07-18T08:16:22;96106.91;;;37.47;22.08
13314;BME280;6725;48.112;11.604;2022-07-18T08:18:48;96103.81;;;37.81;22.24
13314;BME280;6725;48.112;11.604;2022-07-18T08:21:13;96103.09;;;37.95;21.96
13314;BME280;6725;48.112;11.604;2022-07-18T08:23:39;96095.69;;;38.30;21.67
13314;BME280;6725;48.112;11.604;2022-07-18T08:26:04;96093.63;;;38.15;21.28
13314;BME280;6725;48.112;11.604;2022-07-18T08:28:30;96097.22;;;38.08;21.29
13314;BME280;6725;48.112;11.604;2022-07-18T08:30:55;96095.69;;;38.82;21.44
13314;BME280;6725;48.112;11.604;2022-07-18T08:33:21;96091.03;;;39.24;20.76
13314;BME280;6725;48.112;11.604;2022-07-18T08:35:46;96087.72;;;38.58;20.68
13314;BME280;6725;48.112;11.604;2022-07-18T08:38:11;96089.47;;;39.31;20.69
13314;BME280;6725;48.112;11.604;2022-07-18T08:40:38;96098.16;;;38.93;19.66
13314;BME280;6725;48.112;11.604;2022-07-18T08:43:03;96088.84;;;39.48;20.04
13314;BME280;6725;48.112;11.604;2022-07-18T08:45:29;96087.72;;;38.43;20.66
13314;BME280;6725;48.112;11.604;2022-07-18T08:47:55;96085.81;;;38.38;21.17
13314;BME280;6725;48.112;11.604;2022-07-18T08:50:21;96097.22;;;38.08;20.90
13314;BME280;6725;48.112;11.604;2022-07-18T08:52:47;96088.09;;;38.32;20.11
13314;BME280;6725;48.112;11.604;2022-07-18T08:55:12;96085.22;;;38.40;20.23
13314;BME280;6725;48.112;11.604;2022-07-18T08:57:39;96098.19;;;37.45;21.33
13314;BME280;6725;48.112;11.604;2022-07-18T09:00:07;96087.09;;;37.77;20.96
13314;BME280;6725;48.112;11.604;2022-07-18T09:02:33;96080.69;;;39.37;19.69
13314;BME280;6725;48.112;11.604;2022-07-18T09:05:01;96086.50;;;39.06;19.20
13314;BME280;6725;48.112;11.604;2022-07-18T09:07:29;96085.03;;;38.75;19.86
13314;BME280;6725;48.112;11.604;2022-07-18T09:09:57;96088.81;;;37.88;19.84
13314;BME280;6725;48.112;11.604;2022-07-18T09:12:27;96092.59;;;36.97;20.89
13314;BME280;6725;48.112;11.604;2022-07-18T09:14:54;96086.50;;;37.86;19.81
13314;BME280;6725;48.112;11.604;2022-07-18T09:17:22;96076.66;;;38.40;20.30
13314;BME280;6725;48.112;11.604;2022-07-18T09:22:28;96081.56;;;37.94;20.34
13314;BME280;6725;48.112;11.604;2022-07-18T09:25:02;96079.09;;;37.76;19.00
13314;BME280;6725;48.112;11.604;2022-07-18T09:32:47;96077.34;;;37.65;18.69
13314;BME280;6725;48.112;11.604;2022-07-18T09:35:16;96075.16;;;37.00;18.75
13314;BME280;6725;48.112;11.604;2022-07-18T09:40:36;96070.44;;;37.53;18.45
13314;BME280;6725;48.112;11.604;2022-07-18T09:43:08;96070.75;;;37.27;18.56
13314;BME280;6725;48.112;11.604;2022-07-18T09:45:34;96075.41;;;37.60;18.36
13314;BME280;6725;48.112;11.604;2022-07-18T09:48:05;96073.22;;;36.95;18.97
13314;BME280;6725;48.112;11.604;2022-07-18T09:50:36;96079.44;;;36.86;18.95
13314;BME280;6725;48.112;11.604;2022-07-18T09:55:32;96078.53;;;37.92;18.13
13314;BME280;6725;48.112;11.604;2022-07-18T09:58:04;96078.72;;;37.29;18.83
13314;BME280;6725;48.112;11.604;2022-07-18T10:00:33;96083.31;;;36.68;18.84
13314;BME280;6725;48.112;11.604;2022-07-18T10:03:00;96088.38;;;37.76;18.71
13314;BME280;6725;48.112;11.604;2022-07-18T10:05:31;96082.22;;;37.07;19.27
13314;BME280;6725;48.112;11.604;2022-07-18T10:07:58;96083.53;;;37.41;18.35
13314;BME280;6725;48.112;11.604;2022-07-18T10:10:26;96071.56;;;37.07;19.11
13314;BME280;6725;48.112;11.604;2022-07-18T10:12:54;96076.34;;;36.48;19.61
13314;BME280;6725;48.112;11.604;2022-07-18T10:15:22;96065.94;;;36.79;19.27
13314;BME280;6725;48.112;11.604;2022-07-18T10:17:48;96072.38;;;36.80;19.85
13314;BME280;6725;48.112;11.604;2022-07-18T10:20:14;96072.75;;;36.76;19.15
13314;BME280;6725;48.112;11.604;2022-07-18T10:22:41;96065.03;;;37.27;19.36
13314;BME280;6725;48.112;11.604;2022-07-18T10:25:08;96059.16;;;38.36;18.16
13314;BME280;6725;48.112;11.604;2022-07-18T10:27:48;96060.28;;;38.70;18.06
13314;BME280;6725;48.112;11.604;2022-07-18T10:30:14;96055.22;;;39.08;17.89
13314;BME280;6725;48.112;11.604;2022-07-18T10:32:40;96062.03;;;38.28;18.41
13314;BME280;6725;48.112;11.604;2022-07-18T10:35:07;96062.97;;;36.64;19.27
13314;BME280;6725;48.112;11.604;2022-07-18T10:37:33;96060.59;;;35.86;20.22
13314;BME280;6725;48.112;11.604;2022-07-18T10:40:21;96068.44;;;35.93;20.51
13314;BME280;6725;48.112;11.604;2022-07-18T10:45:50;96071.28;;;36.62;19.97
13314;BME280;6725;48.112;11.604;2022-07-18T10:51:07;96059.06;;;36.26;19.75
13314;BME280;6725;48.112;11.604;2022-07-18T11:01:49;96054.44;;;35.95;20.25
13314;BME280;6725;48.112;11.604;2022-07-18T11:09:38;96052.28;;;36.29;19.62
13314;BME280;6725;48.112;11.604;2022-07-18T11:12:23;96042.31;;;37.14;19.17
13314;BME280;6725;48.112;11.604;2022-07-18T11:15:12;96039.00;;;38.11;18.47
13314;BME280;6725;48.112;11.604;2022-07-18T11:18:01;96036.31;;;38.13;18.88
13314;BME280;6725;48.112;11.604;2022-07-18T11:23:00;96034.66;;;37.37;18.62
13314;BME280;6725;48.112;11.604;2022-07-18T11:25:27;96040.75;;;36.98;18.97
13314;BME280;6725;48.112;11.604;2022-07-18T11:27:54;96030.72;;;37.55;18.60
13314;BME280;6725;48.112;11.604;2022-07-18T11:30:21;96029.06;;;38.27;18.30
13314;BME280;6725;48.112;11.604;2022-07-18T11:32:47;96033.94;;;37.01;19.89
13314;BME280;6725;48.112;11.604;2022-07-18T11:35:13;96035.16;;;36.85;20.32
13314;BME280;6725;48.112;11.604;2022-07-18T11:37:45;96032.91;;;34.86;21.01
13314;BME280;6725;48.112;11.604;2022-07-18T11:40:12;96027.13;;;35.38;20.97
13314;BME280;6725;48.112;11.604;2022-07-18T11:42:39;96020.81;;;35.19;21.47
13314;BME280;6725;48.112;11.604;2022-07-18T11:45:06;96018.84;;;35.81;20.92
13314;BME280;6725;48.112;11.604;2022-07-18T11:47:38;96021.16;;;35.49;21.52
13314;BME280;6725;48.112;11.604;2022-07-18T11:50:04;96022.34;;;35.20;21.32
13314;BME280;6725;48.112;11.604;2022-07-18T11:52:29;96025.41;;;35.22;21.20
13314;BME280;6725;48.112;11.604;2022-07-18T11:54:59;96022.50;;;33.97;22.73
13314;BME280;6725;48.112;11.604;2022-07-18T11:57:30;96020.00;;;34.20;22.61
13314;BME280;6725;48.112;11.604;2022-07-18T11:59:55;96018.28;;;34.69;21.65
13314;BME280;6725;48.112;11.604;2022-07-18T12:05:42;96003.53;;;34.18;22.38
13314;BME280;6725;48.112;11.604;2022-07-18T12:08:47;96013.28;;;34.36;23.50
13314;BME280;6725;48.112;11.604;2022-07-18T12:11:16;96015.41;;;32.66;24.18
13314;BME280;6725;48.112;11.604;2022-07-18T12:13:53;96014.03;;;32.54;24.79
13314;BME280;6725;48.112;11.604;2022-07-18T12:18:54;95997.31;;;32.08;25.54
13314;BME280;6725;48.112;11.604;2022-07-18T12:21:20;95999.03;;;32.59;25.27
13314;BME280;6725;48.112;11.604;2022-07-18T12:23:45;95996.25;;;32.78;25.48
13314;BME280;6725;48.112;11.604;2022-07-18T12:26:31;95984.00;;;33.07;24.57
13314;BME280;6725;48.112;11.604;2022-07-18T12:29:04;95989.47;;;32.86;24.01
13314;BME280;6725;48.112;11.604;2022-07-18T12:31:44;95983.47;;;32.71;23.72
13314;BME280;6725;48.112;11.604;2022-07-18T12:34:15;95985.59;;;32.23;24.51
13314;BME280;6725;48.112;11.604;2022-07-18T12:36:54;95997.22;;;31.36;26.01
13314;BME280;6725;48.112;11.604;2022-07-18T12:41:51;95983.13;;;30.90;27.02
13314;BME280;6725;48.112;11.604;2022-07-18T12:44:18;95985.00;;;31.52;27.01
13314;BME280;6725;48.112;11.604;2022-07-18T12:46:43;95984.22;;;31.52;25.74
13314;BME280;6725;48.112;11.604;2022-07-18T12:49:08;95977.09;;;31.75;25.68
13314;BME280;6725;48.112;11.604;2022-07-18T12:51:34;95980.38;;;31.84;26.33
13314;BME280;6725;48.112;11.604;2022-07-18T12:53:59;95973.41;;;31.26;26.18
13314;BME280;6725;48.112;11.604;2022-07-18T12:56:25;95980.19;;;31.47;26.37
13314;BME280;6725;48.112;11.604;2022-07-18T12:58:50;95985.28;;;31.13;26.20
13314;BME280;6725;48.112;11.604;2022-07-18T13:01:15;95981.19;;;31.09;26.43
13314;BME280;6725;48.112;11.604;2022-07-18T13:03:41;95972.22;;;31.46;26.64
13314;BME280;6725;48.112;11.604;2022-07-18T13:06:06;95981.50;;;31.70;26.12
13314;BME280;6725;48.112;11.604;2022-07-18T13:08:32;95980.84;;;31.29;26.17
13314;BME280;6725;48.112;11.604;2022-07-18T13:10:58;95975.38;;;31.66;26.13
13314;BME280;6725;48.112;11.604;2022-07-18T13:13:24;95973.94;;;31.84;25.77
13314;BME280;6725;48.112;11.604;2022-07-18T13:15:49;95981.25;;;32.22;25.85
13314;BME280;6725;48.112;11.604;2022-07-18T13:18:15;95963.38;;;32.32;25.31
13314;BME280;6725;48.112;11.604;2022-07-18T13:20:41;95975.19;;;31.88;25.63
13314;BME280;6725;48.112;11.604;2022-07-18T13:23:06;95979.03;;;31.56;26.51
13314;BME280;6725;48.112;11.604;2022-07-18T13:25:32;95977.53;;;31.55;25.53
13314;BME280;6725;48.112;11.604;2022-07-18T13:27:58;95978.53;;;31.87;25.73
13314;BME280;6725;48.112;11.604;2022-07-18T13:30:23;95965.41;;;31.89;26.24
13314;BME280;6725;48.112;11.604;2022-07-18T13:32:48;95973.19;;;31.54;26.63
13314;BME280;6725;48.112;11.604;2022-07-18T13:35:14;95969.91;;;31.09;26.94
13314;BME280;6725;48.112;11.604;2022-07-18T13:37:40;95960.13;;;31.16;26.91
13314;BME280;6725;48.112;11.604;2022-07-18T13:40:06;95965.81;;;31.10;27.35
13314;BME280;6725;48.112;11.604;2022-07-18T13:42:32;95970.16;;;31.11;27.39